Andrew J. Barberi — WYR3370 — position and weather

sailwx.info

Track history (hours):
 
Tides and Currents Weather Stations Pressure Air Temp Water Temp Dewpoint Dewpoint Depression Visibility Wind Speed Wind Dir Waves Ship Positions

Andrew J. Barberi

Owner: CITY OF NEW YORK, Brooklyn, NY. More information available from US FCC via Universal Licensing System and Coast Guard Vessel Documentation Center.

Last reported at 2018-Jun-23 09:30 UTC. Time now 2018-Jun-23 09:48 UTC.
Position N 40°39' W 074°04'.

Length 94 m; draft 4.3 m.

Type: Ship. MMSI: 367000150.

Date/timePositionNaut miles runAvg speedWind from/ knotsBaromVisibWave heightAir tempDewpointWater temp
2018-Jun-23 09:30N 40°39' W 074°04'0 0.0
2018-Jun-23 09:00N 40°39' W 074°04'0 0.0
2018-Jun-23 08:30N 40°39' W 074°04'0 0.0
2018-Jun-23 08:00N 40°39' W 074°04'0 0.0
2018-Jun-23 07:30N 40°39' W 074°04'0 0.0
2018-Jun-23 07:00N 40°39' W 074°04'0 0.0
2018-Jun-23 06:30N 40°39' W 074°04'0 0.0
2018-Jun-23 06:00N 40°39' W 074°04'0 0.0
2018-Jun-23 05:30N 40°39' W 074°04'0 0.0
2018-Jun-23 05:00N 40°39' W 074°04'0 0.0
2018-Jun-23 04:30N 40°39' W 074°04'0 0.0
2018-Jun-23 04:00N 40°39' W 074°04'0 0.0
2018-Jun-23 03:30N 40°39' W 074°04'0 0.0
2018-Jun-23 03:00N 40°39' W 074°04'0 0.0
2018-Jun-23 02:30N 40°39' W 074°04'0 0.0
2018-Jun-23 02:00N 40°39' W 074°04'0 0.0
2018-Jun-23 01:30N 40°39' W 074°04'0 0.0
2018-Jun-23 01:00N 40°39' W 074°04'4 8.6
2018-Jun-23 00:30N 40°42' W 074°01'4 8.5
2018-Jun-23 00:00N 40°39' W 074°04'3 5.5
2018-Jun-22 23:31N 40°41' W 074°02'0 0.5
2018-Jun-22 23:00N 40°41' W 074°02'1 2.7
2018-Jun-22 22:30N 40°40' W 074°03'1 2.2
2018-Jun-22 22:00N 40°41' W 074°02'1 1.9
2018-Jun-22 21:30N 40°40' W 074°03'2 3.7
2018-Jun-22 21:01N 40°42' W 074°02'4 7.4
2018-Jun-22 20:30N 40°39' W 074°04'0 0.0
2018-Jun-22 20:00N 40°39' W 074°04'4 8.7
2018-Jun-22 19:31N 40°42' W 074°01'4 8.6
2018-Jun-22 19:01N 40°39' W 074°04'0 0.1
2018-Jun-22 18:30N 40°39' W 074°04'4 8.7
2018-Jun-22 18:01N 40°42' W 074°01'4 8.6
2018-Jun-22 17:30N 40°39' W 074°04'0 0.1
2018-Jun-22 17:00N 40°39' W 074°04'0 0.0
2018-Jun-22 16:30N 40°39' W 074°04'0 0.0
2018-Jun-22 16:00N 40°39' W 074°04'0 0.0
2018-Jun-22 15:30N 40°39' W 074°04'4 8.6
2018-Jun-22 15:01N 40°42' W 074°01'4 8.5
2018-Jun-22 14:30N 40°39' W 074°04'4 8.6
2018-Jun-22 14:00N 40°42' W 074°01'4 8.6
2018-Jun-22 13:30N 40°39' W 074°04'1 2.5
2018-Jun-22 13:00N 40°40' W 074°03'1 2.6
2018-Jun-22 12:30N 40°41' W 074°02'1 2.9
2018-Jun-22 12:00N 40°40' W 074°03'2 3.1
2018-Jun-22 11:31N 40°41' W 074°02'3 5.3
2018-Jun-22 11:00N 40°39' W 074°04'4 8.7
2018-Jun-22 10:31N 40°42' W 074°01'4 8.5
2018-Jun-22 10:00N 40°39' W 074°04'0 0.1
2018-Jun-22 09:30N 40°39' W 074°04'0 0.0
2018-Jun-22 09:00N 40°39' W 074°04'0 0.0
2018-Jun-22 08:30N 40°39' W 074°04'0 0.0
2018-Jun-22 07:58N 40°39' W 074°04'0 0.0
2018-Jun-22 07:28N 40°39' W 074°04'0 0.0
2018-Jun-22 06:58N 40°39' W 074°04'0 0.0
2018-Jun-22 06:28N 40°39' W 074°04'0 0.0
2018-Jun-22 05:58N 40°39' W 074°04'0 0.1
2018-Jun-22 05:28N 40°39' W 074°04'0 0.1
2018-Jun-22 04:58N 40°39' W 074°04'0 0.0
2018-Jun-22 04:28N 40°39' W 074°04'0 0.0
2018-Jun-22 03:58N 40°39' W 074°04'0 0.0
2018-Jun-22 03:28N 40°39' W 074°04'0 0.0
2018-Jun-22 02:58N 40°39' W 074°04'0 0.0
2018-Jun-22 02:28N 40°39' W 074°04'0 0.0
2018-Jun-22 01:58N 40°39' W 074°04'0 0.1
2018-Jun-22 01:30N 40°39' W 074°04'0 0.0
2018-Jun-22 01:00N 40°39' W 074°04'4 8.7
2018-Jun-22 00:30N 40°42' W 074°01'4 8.6
2018-Jun-22 00:00N 40°39' W 074°04'3 5.6
2018-Jun-21 23:30N 40°41' W 074°02'0 0.5
2018-Jun-21 23:00N 40°41' W 074°02'1 2.5
2018-Jun-21 22:30N 40°40' W 074°03'1 2.4
2018-Jun-21 22:00N 40°41' W 074°02'1 2.9
2018-Jun-21 21:31N 40°40' W 074°03'1 2.7
2018-Jun-21 21:00N 40°41' W 074°02'3 5.8
2018-Jun-21 20:31N 40°39' W 074°04'0 0.0
2018-Jun-21 20:01N 40°39' W 074°04'4 8.6
2018-Jun-21 19:31N 40°42' W 074°01'4 8.5
2018-Jun-21 19:00N 40°39' W 074°04'0 0.1
2018-Jun-21 18:31N 40°39' W 074°04'4 8.6
2018-Jun-21 18:00N 40°42' W 074°01'4 8.6
2018-Jun-21 17:30N 40°39' W 074°04'0 0.1
2018-Jun-21 17:00N 40°39' W 074°04'4 8.6
2018-Jun-21 16:30N 40°42' W 074°01'4 8.6
2018-Jun-21 16:00N 40°39' W 074°04'0 0.1
2018-Jun-21 15:30N 40°39' W 074°04'4 8.7
2018-Jun-21 15:00N 40°42' W 074°01'4 8.6
2018-Jun-21 14:31N 40°39' W 074°04'4 8.6
2018-Jun-21 14:01N 40°42' W 074°01'4 8.5
2018-Jun-21 13:30N 40°39' W 074°04'2 3.8
2018-Jun-21 13:00N 40°40' W 074°03'1 1.2
2018-Jun-21 12:30N 40°41' W 074°02'1 1.9
2018-Jun-21 12:00N 40°40' W 074°03'1 2.3
2018-Jun-21 11:30N 40°41' W 074°02'3 5.5
2018-Jun-21 11:01N 40°39' W 074°04'4 8.6
2018-Jun-21 10:30N 40°42' W 074°01'4 8.6
2018-Jun-21 10:00N 40°39' W 074°04'0 0.1
2018-Jun-21 09:30N 40°39' W 074°04'0 0.0
2018-Jun-21 09:00N 40°39' W 074°04'0 0.1
2018-Jun-21 08:30N 40°39' W 074°04'0 0.1
2018-Jun-21 08:00N 40°39' W 074°04'0 0.0
2018-Jun-21 07:30N 40°39' W 074°04'0 0.0
2018-Jun-21 06:59N 40°39' W 074°04'0 0.0
2018-Jun-21 06:29N 40°39' W 074°04'0 0.0
2018-Jun-21 05:59N 40°39' W 074°04'0 0.0
2018-Jun-21 05:29N 40°39' W 074°04'0 0.0
2018-Jun-21 04:59N 40°39' W 074°04'0 0.0
2018-Jun-21 04:29N 40°39' W 074°04'0 0.0
2018-Jun-21 03:59N 40°39' W 074°04'0 0.0
2018-Jun-21 03:29N 40°39' W 074°04'0 0.0
2018-Jun-21 02:59N 40°39' W 074°04'0 0.0
2018-Jun-21 02:29N 40°39' W 074°04'0 0.0
2018-Jun-21 01:59N 40°39' W 074°04'0 0.2
2018-Jun-21 01:31N 40°39' W 074°04'0 0.0
2018-Jun-21 01:01N 40°39' W 074°04'4 8.6
2018-Jun-21 00:30N 40°42' W 074°01'4 8.7
2018-Jun-21 00:00N 40°39' W 074°04'3 5.9
2018-Jun-20 23:30N 40°41' W 074°02'0 0.7
2018-Jun-20 23:00N 40°41' W 074°02'1 1.1
2018-Jun-20 22:31N 40°40' W 074°03'1 2.0
2018-Jun-20 22:00N 40°41' W 074°02'2 3.7
2018-Jun-20 21:30N 40°40' W 074°03'3 5.2
2018-Jun-20 21:01N 40°42' W 074°01'4 7.4
2018-Jun-20 20:31N 40°39' W 074°04'0 0.0
2018-Jun-20 20:00N 40°39' W 074°04'4 8.5
2018-Jun-20 19:30N 40°42' W 074°01'4 8.3
2018-Jun-20 18:59N 40°39' W 074°04'0 0.1
2018-Jun-20 18:30N 40°39' W 074°04'4 8.7
2018-Jun-20 18:00N 40°42' W 074°01'4 8.5
2018-Jun-20 17:30N 40°39' W 074°04'0 0.1
2018-Jun-20 17:01N 40°39' W 074°04'0 0.1
2018-Jun-20 16:30N 40°39' W 074°04'0 0.0
2018-Jun-20 16:00N 40°39' W 074°04'0 0.0
2018-Jun-20 15:31N 40°39' W 074°04'4 8.7
2018-Jun-20 15:00N 40°42' W 074°01'4 8.6
2018-Jun-20 14:30N 40°39' W 074°04'4 8.5
2018-Jun-20 14:00N 40°42' W 074°01'4 8.7
2018-Jun-20 13:30N 40°39' W 074°04'3 5.5
2018-Jun-20 13:00N 40°41' W 074°02'1 2.7
2018-Jun-20 12:30N 40°40' W 074°03'0 0.7
2018-Jun-20 12:00N 40°40' W 074°03'1 1.3
2018-Jun-20 11:30N 40°41' W 074°02'2 4.9
2018-Jun-20 11:00N 40°39' W 074°04'4 8.6
2018-Jun-20 10:30N 40°42' W 074°01'4 8.7
2018-Jun-20 10:00N 40°39' W 074°04'0 0.0
2018-Jun-20 09:17N 40°39' W 074°04'0 0.0
2018-Jun-20 09:00N 40°39' W 074°04'0 0.0
2018-Jun-20 08:30N 40°39' W 074°04'0 0.0
2018-Jun-20 08:00N 40°39' W 074°04'0 0.0
2018-Jun-20 07:30N 40°39' W 074°04'0 0.0
2018-Jun-20 07:00N 40°39' W 074°04'0 0.0
2018-Jun-20 06:30N 40°39' W 074°04'0 0.0
2018-Jun-20 06:00N 40°39' W 074°04'0 0.0
2018-Jun-20 05:30N 40°39' W 074°04'0 0.0
2018-Jun-20 05:00N 40°39' W 074°04'0 0.0
2018-Jun-20 04:30N 40°39' W 074°04'0 0.0
2018-Jun-20 04:00N 40°39' W 074°04'0 0.0
2018-Jun-20 03:30N 40°39' W 074°04'0 0.0
2018-Jun-20 03:00N 40°39' W 074°04'0 0.0
2018-Jun-20 02:30N 40°39' W 074°04'0 0.0
2018-Jun-20 02:00N 40°39' W 074°04'0 0.1
2018-Jun-20 01:30N 40°39' W 074°04'0 0.0
2018-Jun-20 01:00N 40°39' W 074°04'4 8.7
2018-Jun-20 00:30N 40°42' W 074°01'4 8.6
2018-Jun-20 00:00N 40°39' W 074°04'2 4.5
2018-Jun-19 23:30N 40°40' W 074°03'1 1.2
2018-Jun-19 23:00N 40°41' W 074°02'1 2.5
2018-Jun-19 22:30N 40°40' W 074°03'2 3.2
2018-Jun-19 22:01N 40°41' W 074°02'2 3.9
2018-Jun-19 21:31N 40°39' W 074°03'2 4.5
2018-Jun-19 21:00N 40°41' W 074°02'3 7.0
2018-Jun-19 20:30N 40°39' W 074°04'0 0.0
2018-Jun-19 20:01N 40°39' W 074°04'4 8.6
2018-Jun-19 19:31N 40°42' W 074°01'4 8.5
2018-Jun-19 19:00N 40°39' W 074°04'0 0.1
2018-Jun-19 18:31N 40°39' W 074°04'4 8.6
2018-Jun-19 18:00N 40°42' W 074°01'4 8.5
2018-Jun-19 17:30N 40°39' W 074°04'0 0.1
2018-Jun-19 17:00N 40°39' W 074°04'0 0.0
2018-Jun-19 16:30N 40°39' W 074°04'0 0.0
2018-Jun-19 16:00N 40°39' W 074°04'0 0.0
2018-Jun-19 15:30N 40°39' W 074°04'0 0.0
2018-Jun-19 15:00N 40°39' W 074°04'0 0.0
2018-Jun-19 14:30N 40°39' W 074°04'4 8.6
2018-Jun-19 14:00N 40°42' W 074°01'4 8.6
2018-Jun-19 13:30N 40°39' W 074°04'2 4.2
2018-Jun-19 13:00N 40°40' W 074°03'0 0.4
2018-Jun-19 12:30N 40°40' W 074°02'2 3.0
2018-Jun-19 11:49N 40°42' W 074°01'2 5.8
2018-Jun-19 11:30N 40°41' W 074°02'3 5.1
2018-Jun-19 11:00N 40°39' W 074°04'4 8.7
2018-Jun-19 10:30N 40°42' W 074°01'4 8.6
2018-Jun-19 10:00N 40°39' W 074°04'2 3.7
2018-Jun-19 09:30N 40°37' W 074°03'2 3.7
2018-Jun-19 09:00N 40°39' W 074°04'0 0.0
2018-Jun-19 08:30N 40°39' W 074°04'0 0.0
2018-Jun-19 08:00N 40°39' W 074°04'0 0.0
2018-Jun-19 07:30N 40°39' W 074°04'0 0.1
2018-Jun-19 07:00N 40°39' W 074°04'0 0.0
2018-Jun-19 06:30N 40°39' W 074°04'0 0.1
2018-Jun-19 05:59N 40°39' W 074°04'0 0.0
2018-Jun-19 05:29N 40°39' W 074°04'0 0.0
2018-Jun-19 04:59N 40°39' W 074°04'0 0.0
2018-Jun-19 04:29N 40°39' W 074°04'0 0.0
2018-Jun-19 03:59N 40°39' W 074°04'0 0.0
2018-Jun-19 03:29N 40°39' W 074°04'0 0.0
2018-Jun-19 02:56N 40°39' W 074°04'0 0.0
2018-Jun-19 02:29N 40°39' W 074°04'0 0.0
2018-Jun-19 01:59N 40°39' W 074°04'0 0.0
2018-Jun-19 01:30N 40°39' W 074°04'0 0.0
2018-Jun-19 01:00N 40°39' W 074°04'4 8.6
2018-Jun-19 00:30N 40°42' W 074°01'4 8.6
2018-Jun-19 00:00N 40°39' W 074°04'2 4.9
2018-Jun-18 23:30N 40°41' W 074°02'0 0.4
2018-Jun-18 23:00N 40°41' W 074°02'1 2.4
2018-Jun-18 22:30N 40°40' W 074°03'1 2.1
2018-Jun-18 22:00N 40°41' W 074°02'1 2.1
2018-Jun-18 21:30N 40°40' W 074°03'2 4.0
2018-Jun-18 21:00N 40°42' W 074°02'3 6.9
2018-Jun-18 20:30N 40°39' W 074°04'0 0.0
2018-Jun-18 20:00N 40°39' W 074°04'4 8.7
2018-Jun-18 19:31N 40°42' W 074°01'4 8.6
2018-Jun-18 19:00N 40°39' W 074°04'0 0.1
2018-Jun-18 18:30N 40°39' W 074°04'4 8.5
2018-Jun-18 18:00N 40°42' W 074°01'4 8.6
2018-Jun-18 17:30N 40°39' W 074°04'0 0.0
2018-Jun-18 17:00N 40°39' W 074°04'4 8.7
2018-Jun-18 16:31N 40°42' W 074°01'4 8.6
2018-Jun-18 16:01N 40°39' W 074°04'0 0.1
2018-Jun-18 15:30N 40°39' W 074°04'0 0.0
2018-Jun-18 15:00N 40°39' W 074°04'0 0.0
2018-Jun-18 14:30N 40°39' W 074°04'4 8.7
2018-Jun-18 14:01N 40°42' W 074°01'4 8.6
2018-Jun-18 13:30N 40°39' W 074°04'1 2.6
2018-Jun-18 13:01N 40°40' W 074°03'1 2.7
2018-Jun-18 12:31N 40°41' W 074°02'1 2.8
2018-Jun-18 12:00N 40°40' W 074°03'1 2.8
2018-Jun-18 11:30N 40°41' W 074°02'3 5.4
2018-Jun-18 11:01N 40°39' W 074°04'4 8.6
2018-Jun-18 10:30N 40°42' W 074°01'4 8.6
2018-Jun-18 10:00N 40°39' W 074°04'0 0.0
2018-Jun-18 09:30N 40°39' W 074°04'0 0.0
2018-Jun-18 09:00N 40°39' W 074°04'0 0.1
2018-Jun-18 08:30N 40°39' W 074°04'0 0.1
2018-Jun-18 08:00N 40°39' W 074°04'0 0.0
2018-Jun-18 07:31N 40°39' W 074°04'0 0.1
2018-Jun-18 07:00N 40°39' W 074°04'0 0.0
2018-Jun-18 06:30N 40°39' W 074°04'0 0.0
2018-Jun-18 06:00N 40°39' W 074°04'0 0.0
2018-Jun-18 05:30N 40°39' W 074°04'0 0.0
2018-Jun-18 05:00N 40°39' W 074°04'0 0.0
2018-Jun-18 04:30N 40°39' W 074°04'0 0.0
2018-Jun-18 04:00N 40°39' W 074°04'0 0.0
2018-Jun-18 03:30N 40°39' W 074°04'0 0.0
2018-Jun-18 03:00N 40°39' W 074°04'0 0.0
2018-Jun-18 02:30N 40°39' W 074°04'0 0.0
2018-Jun-18 02:00N 40°39' W 074°04'0 0.0
2018-Jun-18 01:30N 40°39' W 074°04'0 0.0
2018-Jun-18 01:00N 40°39' W 074°04'0 0.1
2018-Jun-18 00:30N 40°39' W 074°04'0 0.0
2018-Jun-18 00:01N 40°39' W 074°04'4 8.6
2018-Jun-17 23:30N 40°42' W 074°01'4 8.6
2018-Jun-17 23:00N 40°39' W 074°04'0 0.0
2018-Jun-17 22:30N 40°39' W 074°04'4 8.6
2018-Jun-17 22:01N 40°42' W 074°01'4 8.6
2018-Jun-17 21:31N 40°39' W 074°04'0 0.0
2018-Jun-17 21:00N 40°39' W 074°04'4 8.7
2018-Jun-17 20:30N 40°42' W 074°01'4 8.6
2018-Jun-17 20:00N 40°39' W 074°04'0 0.1
2018-Jun-17 19:30N 40°39' W 074°04'4 8.6
2018-Jun-17 19:00N 40°42' W 074°01'4 8.3
2018-Jun-17 18:30N 40°39' W 074°04'0 0.0
2018-Jun-17 18:00N 40°39' W 074°04'4 8.6
2018-Jun-17 17:30N 40°42' W 074°01'4 8.6
2018-Jun-17 17:00N 40°39' W 074°04'0 0.0
2018-Jun-17 16:30N 40°39' W 074°04'4 8.6
2018-Jun-17 16:00N 40°42' W 074°01'4 8.6
2018-Jun-17 15:30N 40°39' W 074°04'0 0.0
2018-Jun-17 15:00N 40°39' W 074°04'0 0.0
2018-Jun-17 14:30N 40°39' W 074°04'0 0.0
2018-Jun-17 14:00N 40°39' W 074°04'0 0.0
2018-Jun-17 13:30N 40°39' W 074°04'0 0.0
2018-Jun-17 11:05N 40°39' W 074°04'0 0.0
2018-Jun-17 10:56N 40°39' W 074°04'0 0.0
2018-Jun-17 10:29N 40°39' W 074°04'0 0.0
2018-Jun-17 09:59N 40°39' W 074°04'0 0.0
2018-Jun-17 09:29N 40°39' W 074°04'0 0.0
2018-Jun-17 08:59N 40°39' W 074°04'0 0.0
2018-Jun-17 08:29N 40°39' W 074°04'0 0.0
2018-Jun-17 07:59N 40°39' W 074°04'0 0.0
2018-Jun-17 07:29N 40°39' W 074°04'0 0.0
2018-Jun-17 06:59N 40°39' W 074°04'0 0.0
2018-Jun-17 06:29N 40°39' W 074°04'0 0.0
2018-Jun-17 05:59N 40°39' W 074°04'0 0.0
2018-Jun-17 05:29N 40°39' W 074°04'0 0.0
2018-Jun-17 04:59N 40°39' W 074°04'0 0.0
2018-Jun-17 04:29N 40°39' W 074°04'0 0.0
2018-Jun-17 03:59N 40°39' W 074°04'0 0.0
2018-Jun-17 03:29N 40°39' W 074°04'0 0.0
2018-Jun-17 02:59N 40°39' W 074°04'0 0.0
2018-Jun-17 02:29N 40°39' W 074°04'0 0.0
2018-Jun-17 01:59N 40°39' W 074°04'0 0.0
2018-Jun-17 01:29N 40°39' W 074°04'0 0.0
2018-Jun-17 00:59N 40°39' W 074°04'0 0.1
2018-Jun-17 00:30N 40°39' W 074°04'0 0.2
2018-Jun-17 00:01N 40°39' W 074°04'4 8.5
2018-Jun-16 23:30N 40°42' W 074°01'4 8.6
2018-Jun-16 23:00N 40°39' W 074°04'0 0.0
2018-Jun-16 22:30N 40°39' W 074°04'4 8.5
2018-Jun-16 22:00N 40°42' W 074°01'4 8.7
2018-Jun-16 21:30N 40°39' W 074°04'0 0.0
2018-Jun-16 21:00N 40°39' W 074°04'4 8.6
2018-Jun-16 20:30N 40°42' W 074°01'4 8.6
2018-Jun-16 20:00N 40°39' W 074°04'0 0.0
2018-Jun-16 19:30N 40°39' W 074°04'4 8.5
2018-Jun-16 19:00N 40°42' W 074°01'4 8.6
2018-Jun-16 18:30N 40°39' W 074°04'0 0.0
2018-Jun-16 18:00N 40°39' W 074°04'4 8.6
2018-Jun-16 17:30N 40°42' W 074°01'4 8.6
2018-Jun-16 17:00N 40°39' W 074°04'0 0.0
2018-Jun-16 16:30N 40°39' W 074°04'4 8.6
2018-Jun-16 16:00N 40°42' W 074°01'4 8.7
2018-Jun-16 15:30N 40°39' W 074°04'0 0.6
2018-Jun-16 15:00N 40°38' W 074°04'0 0.7
2018-Jun-16 14:30N 40°39' W 074°04'0 0.0
2018-Jun-16 14:00N 40°39' W 074°04'0 0.0
2018-Jun-16 13:31N 40°39' W 074°04'0 0.0
2018-Jun-16 13:01N 40°39' W 074°04'0 0.0
2018-Jun-16 12:31N 40°39' W 074°04'0 0.0
2018-Jun-16 11:58N 40°39' W 074°04'0 0.0
2018-Jun-16 11:31N 40°39' W 074°04'0 0.0
2018-Jun-16 10:57N 40°39' W 074°04'0 0.0
2018-Jun-16 10:28N 40°39' W 074°04'0 0.0
2018-Jun-16 10:00N 40°39' W 074°04'0 0.0
2018-Jun-16 09:30N 40°39' W 074°04'0 0.0
2018-Jun-16 09:01N 40°39' W 074°04'0 0.0
2018-Jun-16 08:31N 40°39' W 074°04'0 0.0
2018-Jun-16 07:58N 40°39' W 074°04'0 0.0
2018-Jun-16 07:27N 40°39' W 074°04'0 0.0
2018-Jun-16 07:01N 40°39' W 074°04'0 0.0
2018-Jun-16 06:31N 40°39' W 074°04'0 0.0
2018-Jun-16 06:00N 40°39' W 074°04'0 0.0
2018-Jun-16 05:30N 40°39' W 074°04'0 0.0
2018-Jun-16 05:00N 40°39' W 074°04'0 0.0
2018-Jun-16 04:31N 40°39' W 074°04'0 0.0
2018-Jun-16 04:00N 40°39' W 074°04'0 0.0
2018-Jun-16 03:30N 40°39' W 074°04'0 0.0
2018-Jun-16 03:01N 40°39' W 074°04'0 0.0
2018-Jun-16 02:30N 40°39' W 074°04'0 0.0
2018-Jun-16 01:54N 40°39' W 074°04'0 0.0
2018-Jun-16 01:30N 40°39' W 074°04'4 8.5
2018-Jun-16 01:00N 40°42' W 074°01'4 8.6
2018-Jun-16 00:30N 40°39' W 074°04'0 0.6
2018-Jun-16 00:01N 40°39' W 074°04'4 8.0
2018-Jun-15 23:30N 40°42' W 074°01'4 8.6
2018-Jun-15 23:00N 40°39' W 074°04'4 8.6
2018-Jun-15 22:31N 40°42' W 074°01'2 3.4
2018-Jun-15 22:01N 40°41' W 074°02'1 1.7
2018-Jun-15 21:31N 40°40' W 074°03'2 3.2
2018-Jun-15 21:01N 40°41' W 074°02'3 6.8
2018-Jun-15 20:30N 40°39' W 074°04'0 0.0
2018-Jun-15 20:00N 40°39' W 074°04'4 8.6
2018-Jun-15 19:30N 40°42' W 074°01'4 8.7
2018-Jun-15 19:00N 40°39' W 074°04'0 0.0
2018-Jun-15 18:30N 40°39' W 074°04'4 8.6
2018-Jun-15 18:00N 40°42' W 074°01'4 8.7
2018-Jun-15 17:31N 40°39' W 074°04'0 0.0
2018-Jun-15 17:01N 40°39' W 074°04'4 8.6
2018-Jun-15 16:31N 40°42' W 074°01'4 8.6
2018-Jun-15 16:00N 40°39' W 074°04'0 0.0
2018-Jun-15 15:30N 40°39' W 074°04'4 8.6
2018-Jun-15 15:00N 40°42' W 074°01'4 8.6
2018-Jun-15 14:30N 40°39' W 074°04'4 8.6
2018-Jun-15 14:00N 40°42' W 074°01'4 8.6
2018-Jun-15 13:31N 40°39' W 074°04'1 2.6
2018-Jun-15 13:01N 40°40' W 074°03'2 3.7
2018-Jun-15 12:30N 40°41' W 074°02'2 4.0
2018-Jun-15 12:00N 40°39' W 074°03'2 3.4
2018-Jun-15 11:30N 40°41' W 074°02'3 5.6
2018-Jun-15 11:00N 40°39' W 074°04'4 8.6
2018-Jun-15 10:31N 40°42' W 074°01'4 8.7
2018-Jun-15 10:01N 40°39' W 074°04'0 0.2
2018-Jun-15 09:30N 40°39' W 074°04'0 0.0
2018-Jun-15 09:00N 40°39' W 074°04'0 0.0
2018-Jun-15 08:30N 40°39' W 074°04'0 0.0
2018-Jun-15 08:01N 40°39' W 074°04'0 0.0
2018-Jun-15 07:29N 40°39' W 074°04'0 0.0
2018-Jun-15 06:59N 40°39' W 074°04'0 0.0
2018-Jun-15 06:29N 40°39' W 074°04'0 0.0
2018-Jun-15 05:59N 40°39' W 074°04'0 0.0
2018-Jun-15 05:29N 40°39' W 074°04'0 0.0
2018-Jun-15 04:59N 40°39' W 074°04'0 0.0
2018-Jun-15 04:29N 40°39' W 074°04'0 0.0
2018-Jun-15 03:59N 40°39' W 074°04'0 0.0
2018-Jun-15 03:29N 40°39' W 074°04'0 0.0
2018-Jun-15 02:59N 40°39' W 074°04'0 0.0
2018-Jun-15 02:29N 40°39' W 074°04'0 0.0
2018-Jun-15 02:00N 40°39' W 074°04'0 0.0
2018-Jun-15 01:30N 40°39' W 074°04'4 8.6
2018-Jun-15 01:01N 40°42' W 074°01'4 8.5
2018-Jun-15 00:31N 40°39' W 074°04'0 0.8
2018-Jun-15 00:01N 40°39' W 074°04'4 7.5
2018-Jun-14 23:30N 40°42' W 074°01'4 8.7
2018-Jun-14 23:00N 40°39' W 074°04'4 7.2
2018-Jun-14 22:31N 40°42' W 074°02'1 2.7
2018-Jun-14 22:00N 40°40' W 074°02'0 0.6
2018-Jun-14 21:31N 40°40' W 074°03'1 2.6
2018-Jun-14 21:00N 40°41' W 074°02'3 6.4
2018-Jun-14 20:30N 40°39' W 074°04'0 0.0
2018-Jun-14 20:00N 40°39' W 074°04'4 8.6
2018-Jun-14 19:30N 40°42' W 074°01'4 8.6
2018-Jun-14 19:01N 40°39' W 074°04'0 0.1
2018-Jun-14 18:30N 40°39' W 074°04'4 8.7
2018-Jun-14 18:00N 40°42' W 074°01'4 8.5
2018-Jun-14 17:30N 40°39' W 074°04'0 0.0
2018-Jun-14 17:00N 40°39' W 074°04'4 8.7
2018-Jun-14 16:30N 40°42' W 074°01'4 8.6
2018-Jun-14 16:01N 40°39' W 074°04'1 1.1
2018-Jun-14 15:30N 40°39' W 074°04'4 7.4
2018-Jun-14 15:00N 40°42' W 074°01'4 9.0
2018-Jun-14 14:30N 40°39' W 074°04'4 8.6
2018-Jun-14 14:00N 40°42' W 074°01'4 8.6
2018-Jun-14 13:30N 40°39' W 074°04'2 4.2
2018-Jun-14 13:01N 40°40' W 074°03'0 0.7
2018-Jun-14 12:30N 40°41' W 074°02'1 1.6
2018-Jun-14 12:00N 40°40' W 074°03'1 2.6
2018-Jun-14 11:31N 40°41' W 074°02'3 5.4
2018-Jun-14 10:58N 40°39' W 074°04'4 9.4
2018-Jun-14 10:30N 40°42' W 074°01'4 8.6
2018-Jun-14 10:00N 40°39' W 074°04'0 0.0
2018-Jun-14 09:30N 40°39' W 074°04'0 0.0
2018-Jun-14 09:00N 40°39' W 074°04'0 0.1
2018-Jun-14 08:30N 40°39' W 074°04'0 0.1
2018-Jun-14 08:00N 40°39' W 074°04'0 0.0
2018-Jun-14 07:29N 40°39' W 074°04'0 0.0
2018-Jun-14 06:59N 40°39' W 074°04'0 0.0
2018-Jun-14 06:29N 40°39' W 074°04'0 0.0
2018-Jun-14 05:59N 40°39' W 074°04'0 0.0
2018-Jun-14 05:29N 40°39' W 074°04'0 0.0
2018-Jun-14 04:59N 40°39' W 074°04'0 0.0
2018-Jun-14 04:29N 40°39' W 074°04'0 0.0
2018-Jun-14 03:59N 40°39' W 074°04'0 0.0
2018-Jun-14 03:29N 40°39' W 074°04'0 0.0
2018-Jun-14 02:59N 40°39' W 074°04'0 0.0
2018-Jun-14 02:29N 40°39' W 074°04'0 0.0
2018-Jun-14 01:59N 40°39' W 074°04'0 0.0
2018-Jun-14 01:29N 40°39' W 074°04'0 0.0
2018-Jun-14 01:00N 40°39' W 074°04'4 8.6
2018-Jun-14 00:30N 40°42' W 074°01'4 8.6
2018-Jun-14 00:00N 40°39' W 074°04'3 5.6
2018-Jun-13 23:30N 40°41' W 074°02'0 0.5
2018-Jun-13 23:00N 40°41' W 074°02'1 2.3
2018-Jun-13 22:31N 40°40' W 074°03'2 2.6
2018-Jun-13 21:47N 40°39' W 074°04'2 5.7
2018-Jun-13 21:30N 40°40' W 074°03'2 4.1
2018-Jun-13 21:00N 40°41' W 074°02'4 7.1
2018-Jun-13 20:30N 40°39' W 074°04'0 0.0
2018-Jun-13 20:00N 40°39' W 074°04'4 8.4
2018-Jun-13 19:29N 40°42' W 074°01'4 9.0
2018-Jun-13 19:01N 40°39' W 074°04'0 0.0
2018-Jun-13 18:31N 40°39' W 074°04'4 8.6
2018-Jun-13 18:00N 40°42' W 074°01'4 8.7
2018-Jun-13 17:30N 40°39' W 074°04'0 0.0
2018-Jun-13 17:00N 40°39' W 074°04'4 8.6
2018-Jun-13 16:30N 40°42' W 074°01'4 8.6
2018-Jun-13 16:01N 40°39' W 074°04'0 0.1
2018-Jun-13 15:30N 40°39' W 074°04'4 8.6
2018-Jun-13 15:00N 40°42' W 074°01'4 8.7
2018-Jun-13 14:31N 40°39' W 074°04'4 8.6
2018-Jun-13 14:00N 40°42' W 074°01'4 8.6
2018-Jun-13 13:31N 40°39' W 074°04'2 3.3
2018-Jun-13 13:01N 40°40' W 074°03'1 2.9
2018-Jun-13 12:30N 40°41' W 074°02'2 3.3
2018-Jun-13 12:00N 40°40' W 074°03'2 3.4
2018-Jun-13 11:30N 40°41' W 074°02'3 6.3
2018-Jun-13 11:00N 40°39' W 074°04'4 8.6
2018-Jun-13 10:31N 40°42' W 074°01'4 8.6
2018-Jun-13 10:00N 40°39' W 074°04'0 0.0
2018-Jun-13 09:30N 40°39' W 074°04'  
Track history (hours):
 
Tides and Currents Weather Stations Pressure Air Temp Water Temp Dewpoint Dewpoint Depression Visibility Wind Speed Wind Dir Waves Ship Positions

Andrew J. Barberi

Owner: CITY OF NEW YORK, Brooklyn, NY. More information available from US FCC via Universal Licensing System and Coast Guard Vessel Documentation Center.

Last reported at 2018-Jun-23 09:30 UTC. Time now 2018-Jun-23 09:48 UTC.
Position N 40°39' W 074°04'.

Length 94 m; draft 4.3 m.

Type: Ship. MMSI: 367000150.

Date/timePositionNaut miles runAvg speedWind from/ knotsBaromVisibWave heightAir tempDewpointWater temp
2018-Jun-23 09:30N 40°39' W 074°04'0 0.0
2018-Jun-23 09:00N 40°39' W 074°04'0 0.0
2018-Jun-23 08:30N 40°39' W 074°04'0 0.0
2018-Jun-23 08:00N 40°39' W 074°04'0 0.0
2018-Jun-23 07:30N 40°39' W 074°04'0 0.0
2018-Jun-23 07:00N 40°39' W 074°04'0 0.0
2018-Jun-23 06:30N 40°39' W 074°04'0 0.0
2018-Jun-23 06:00N 40°39' W 074°04'0 0.0
2018-Jun-23 05:30N 40°39' W 074°04'0 0.0
2018-Jun-23 05:00N 40°39' W 074°04'0 0.0
2018-Jun-23 04:30N 40°39' W 074°04'0 0.0
2018-Jun-23 04:00N 40°39' W 074°04'0 0.0
2018-Jun-23 03:30N 40°39' W 074°04'0 0.0
2018-Jun-23 03:00N 40°39' W 074°04'0 0.0
2018-Jun-23 02:30N 40°39' W 074°04'0 0.0
2018-Jun-23 02:00N 40°39' W 074°04'0 0.0
2018-Jun-23 01:30N 40°39' W 074°04'0 0.0
2018-Jun-23 01:00N 40°39' W 074°04'4 8.6
2018-Jun-23 00:30N 40°42' W 074°01'4 8.5
2018-Jun-23 00:00N 40°39' W 074°04'3 5.5
2018-Jun-22 23:31N 40°41' W 074°02'0 0.5
2018-Jun-22 23:00N 40°41' W 074°02'1 2.7
2018-Jun-22 22:30N 40°40' W 074°03'1 2.2
2018-Jun-22 22:00N 40°41' W 074°02'1 1.9
2018-Jun-22 21:30N 40°40' W 074°03'2 3.7
2018-Jun-22 21:01N 40°42' W 074°02'4 7.4
2018-Jun-22 20:30N 40°39' W 074°04'0 0.0
2018-Jun-22 20:00N 40°39' W 074°04'4 8.7
2018-Jun-22 19:31N 40°42' W 074°01'4 8.6
2018-Jun-22 19:01N 40°39' W 074°04'0 0.1
2018-Jun-22 18:30N 40°39' W 074°04'4 8.7
2018-Jun-22 18:01N 40°42' W 074°01'4 8.6
2018-Jun-22 17:30N 40°39' W 074°04'0 0.1
2018-Jun-22 17:00N 40°39' W 074°04'0 0.0
2018-Jun-22 16:30N 40°39' W 074°04'0 0.0
2018-Jun-22 16:00N 40°39' W 074°04'0 0.0
2018-Jun-22 15:30N 40°39' W 074°04'4 8.6
2018-Jun-22 15:01N 40°42' W 074°01'4 8.5
2018-Jun-22 14:30N 40°39' W 074°04'4 8.6
2018-Jun-22 14:00N 40°42' W 074°01'4 8.6
2018-Jun-22 13:30N 40°39' W 074°04'1 2.5
2018-Jun-22 13:00N 40°40' W 074°03'1 2.6
2018-Jun-22 12:30N 40°41' W 074°02'1 2.9
2018-Jun-22 12:00N 40°40' W 074°03'2 3.1
2018-Jun-22 11:31N 40°41' W 074°02'3 5.3
2018-Jun-22 11:00N 40°39' W 074°04'4 8.7
2018-Jun-22 10:31N 40°42' W 074°01'4 8.5
2018-Jun-22 10:00N 40°39' W 074°04'0 0.1
2018-Jun-22 09:30N 40°39' W 074°04'0 0.0
2018-Jun-22 09:00N 40°39' W 074°04'0 0.0
2018-Jun-22 08:30N 40°39' W 074°04'0 0.0
2018-Jun-22 07:58N 40°39' W 074°04'0 0.0
2018-Jun-22 07:28N 40°39' W 074°04'0 0.0
2018-Jun-22 06:58N 40°39' W 074°04'0 0.0
2018-Jun-22 06:28N 40°39' W 074°04'0 0.0
2018-Jun-22 05:58N 40°39' W 074°04'0 0.1
2018-Jun-22 05:28N 40°39' W 074°04'0 0.1
2018-Jun-22 04:58N 40°39' W 074°04'0 0.0
2018-Jun-22 04:28N 40°39' W 074°04'0 0.0
2018-Jun-22 03:58N 40°39' W 074°04'0 0.0
2018-Jun-22 03:28N 40°39' W 074°04'0 0.0
2018-Jun-22 02:58N 40°39' W 074°04'0 0.0
2018-Jun-22 02:28N 40°39' W 074°04'0 0.0
2018-Jun-22 01:58N 40°39' W 074°04'0 0.1
2018-Jun-22 01:30N 40°39' W 074°04'0 0.0
2018-Jun-22 01:00N 40°39' W 074°04'4 8.7
2018-Jun-22 00:30N 40°42' W 074°01'4 8.6
2018-Jun-22 00:00N 40°39' W 074°04'3 5.6
2018-Jun-21 23:30N 40°41' W 074°02'0 0.5
2018-Jun-21 23:00N 40°41' W 074°02'1 2.5
2018-Jun-21 22:30N 40°40' W 074°03'1 2.4
2018-Jun-21 22:00N 40°41' W 074°02'1 2.9
2018-Jun-21 21:31N 40°40' W 074°03'1 2.7
2018-Jun-21 21:00N 40°41' W 074°02'3 5.8
2018-Jun-21 20:31N 40°39' W 074°04'0 0.0
2018-Jun-21 20:01N 40°39' W 074°04'4 8.6
2018-Jun-21 19:31N 40°42' W 074°01'4 8.5
2018-Jun-21 19:00N 40°39' W 074°04'0 0.1
2018-Jun-21 18:31N 40°39' W 074°04'4 8.6
2018-Jun-21 18:00N 40°42' W 074°01'4 8.6
2018-Jun-21 17:30N 40°39' W 074°04'0 0.1
2018-Jun-21 17:00N 40°39' W 074°04'4 8.6
2018-Jun-21 16:30N 40°42' W 074°01'4 8.6
2018-Jun-21 16:00N 40°39' W 074°04'0 0.1
2018-Jun-21 15:30N 40°39' W 074°04'4 8.7
2018-Jun-21 15:00N 40°42' W 074°01'4 8.6
2018-Jun-21 14:31N 40°39' W 074°04'4 8.6
2018-Jun-21 14:01N 40°42' W 074°01'4 8.5
2018-Jun-21 13:30N 40°39' W 074°04'2 3.8
2018-Jun-21 13:00N 40°40' W 074°03'1 1.2
2018-Jun-21 12:30N 40°41' W 074°02'1 1.9
2018-Jun-21 12:00N 40°40' W 074°03'1 2.3
2018-Jun-21 11:30N 40°41' W 074°02'3 5.5
2018-Jun-21 11:01N 40°39' W 074°04'4 8.6
2018-Jun-21 10:30N 40°42' W 074°01'4 8.6
2018-Jun-21 10:00N 40°39' W 074°04'0 0.1
2018-Jun-21 09:30N 40°39' W 074°04'0 0.0
2018-Jun-21 09:00N 40°39' W 074°04'0 0.1
2018-Jun-21 08:30N 40°39' W 074°04'0 0.1
2018-Jun-21 08:00N 40°39' W 074°04'0 0.0
2018-Jun-21 07:30N 40°39' W 074°04'0 0.0
2018-Jun-21 06:59N 40°39' W 074°04'0 0.0
2018-Jun-21 06:29N 40°39' W 074°04'0 0.0
2018-Jun-21 05:59N 40°39' W 074°04'0 0.0
2018-Jun-21 05:29N 40°39' W 074°04'0 0.0
2018-Jun-21 04:59N 40°39' W 074°04'0 0.0
2018-Jun-21 04:29N 40°39' W 074°04'0 0.0
2018-Jun-21 03:59N 40°39' W 074°04'0 0.0
2018-Jun-21 03:29N 40°39' W 074°04'0 0.0
2018-Jun-21 02:59N 40°39' W 074°04'0 0.0
2018-Jun-21 02:29N 40°39' W 074°04'0 0.0
2018-Jun-21 01:59N 40°39' W 074°04'0 0.2
2018-Jun-21 01:31N 40°39' W 074°04'0 0.0
2018-Jun-21 01:01N 40°39' W 074°04'4 8.6
2018-Jun-21 00:30N 40°42' W 074°01'4 8.7
2018-Jun-21 00:00N 40°39' W 074°04'3 5.9
2018-Jun-20 23:30N 40°41' W 074°02'0 0.7
2018-Jun-20 23:00N 40°41' W 074°02'1 1.1
2018-Jun-20 22:31N 40°40' W 074°03'1 2.0
2018-Jun-20 22:00N 40°41' W 074°02'2 3.7
2018-Jun-20 21:30N 40°40' W 074°03'3 5.2
2018-Jun-20 21:01N 40°42' W 074°01'4 7.4
2018-Jun-20 20:31N 40°39' W 074°04'0 0.0
2018-Jun-20 20:00N 40°39' W 074°04'4 8.5
2018-Jun-20 19:30N 40°42' W 074°01'4 8.3
2018-Jun-20 18:59N 40°39' W 074°04'0 0.1
2018-Jun-20 18:30N 40°39' W 074°04'4 8.7
2018-Jun-20 18:00N 40°42' W 074°01'4 8.5
2018-Jun-20 17:30N 40°39' W 074°04'0 0.1
2018-Jun-20 17:01N 40°39' W 074°04'0 0.1
2018-Jun-20 16:30N 40°39' W 074°04'0 0.0
2018-Jun-20 16:00N 40°39' W 074°04'0 0.0
2018-Jun-20 15:31N 40°39' W 074°04'4 8.7
2018-Jun-20 15:00N 40°42' W 074°01'4 8.6
2018-Jun-20 14:30N 40°39' W 074°04'4 8.5
2018-Jun-20 14:00N 40°42' W 074°01'4 8.7
2018-Jun-20 13:30N 40°39' W 074°04'3 5.5
2018-Jun-20 13:00N 40°41' W 074°02'1 2.7
2018-Jun-20 12:30N 40°40' W 074°03'0 0.7
2018-Jun-20 12:00N 40°40' W 074°03'1 1.3
2018-Jun-20 11:30N 40°41' W 074°02'2 4.9
2018-Jun-20 11:00N 40°39' W 074°04'4 8.6
2018-Jun-20 10:30N 40°42' W 074°01'4 8.7
2018-Jun-20 10:00N 40°39' W 074°04'0 0.0
2018-Jun-20 09:17N 40°39' W 074°04'0 0.0
2018-Jun-20 09:00N 40°39' W 074°04'0 0.0
2018-Jun-20 08:30N 40°39' W 074°04'0 0.0
2018-Jun-20 08:00N 40°39' W 074°04'0 0.0
2018-Jun-20 07:30N 40°39' W 074°04'0 0.0
2018-Jun-20 07:00N 40°39' W 074°04'0 0.0
2018-Jun-20 06:30N 40°39' W 074°04'0 0.0
2018-Jun-20 06:00N 40°39' W 074°04'0 0.0
2018-Jun-20 05:30N 40°39' W 074°04'0 0.0
2018-Jun-20 05:00N 40°39' W 074°04'0 0.0
2018-Jun-20 04:30N 40°39' W 074°04'0 0.0
2018-Jun-20 04:00N 40°39' W 074°04'0 0.0
2018-Jun-20 03:30N 40°39' W 074°04'0 0.0
2018-Jun-20 03:00N 40°39' W 074°04'0 0.0
2018-Jun-20 02:30N 40°39' W 074°04'0 0.0
2018-Jun-20 02:00N 40°39' W 074°04'0 0.1
2018-Jun-20 01:30N 40°39' W 074°04'0 0.0
2018-Jun-20 01:00N 40°39' W 074°04'4 8.7
2018-Jun-20 00:30N 40°42' W 074°01'4 8.6
2018-Jun-20 00:00N 40°39' W 074°04'2 4.5
2018-Jun-19 23:30N 40°40' W 074°03'1 1.2
2018-Jun-19 23:00N 40°41' W 074°02'1 2.5
2018-Jun-19 22:30N 40°40' W 074°03'2 3.2
2018-Jun-19 22:01N 40°41' W 074°02'2 3.9
2018-Jun-19 21:31N 40°39' W 074°03'2 4.5
2018-Jun-19 21:00N 40°41' W 074°02'3 7.0
2018-Jun-19 20:30N 40°39' W 074°04'0 0.0
2018-Jun-19 20:01N 40°39' W 074°04'4 8.6
2018-Jun-19 19:31N 40°42' W 074°01'4 8.5
2018-Jun-19 19:00N 40°39' W 074°04'0 0.1
2018-Jun-19 18:31N 40°39' W 074°04'4 8.6
2018-Jun-19 18:00N 40°42' W 074°01'4 8.5
2018-Jun-19 17:30N 40°39' W 074°04'0 0.1
2018-Jun-19 17:00N 40°39' W 074°04'0 0.0
2018-Jun-19 16:30N 40°39' W 074°04'0 0.0
2018-Jun-19 16:00N 40°39' W 074°04'0 0.0
2018-Jun-19 15:30N 40°39' W 074°04'0 0.0
2018-Jun-19 15:00N 40°39' W 074°04'0 0.0
2018-Jun-19 14:30N 40°39' W 074°04'4 8.6
2018-Jun-19 14:00N 40°42' W 074°01'4 8.6
2018-Jun-19 13:30N 40°39' W 074°04'2 4.2
2018-Jun-19 13:00N 40°40' W 074°03'0 0.4
2018-Jun-19 12:30N 40°40' W 074°02'2 3.0
2018-Jun-19 11:49N 40°42' W 074°01'2 5.8
2018-Jun-19 11:30N 40°41' W 074°02'3 5.1
2018-Jun-19 11:00N 40°39' W 074°04'4 8.7
2018-Jun-19 10:30N 40°42' W 074°01'4 8.6
2018-Jun-19 10:00N 40°39' W 074°04'2 3.7
2018-Jun-19 09:30N 40°37' W 074°03'2 3.7
2018-Jun-19 09:00N 40°39' W 074°04'0 0.0
2018-Jun-19 08:30N 40°39' W 074°04'0 0.0
2018-Jun-19 08:00N 40°39' W 074°04'0 0.0
2018-Jun-19 07:30N 40°39' W 074°04'0 0.1
2018-Jun-19 07:00N 40°39' W 074°04'0 0.0
2018-Jun-19 06:30N 40°39' W 074°04'0 0.1
2018-Jun-19 05:59N 40°39' W 074°04'0 0.0
2018-Jun-19 05:29N 40°39' W 074°04'0 0.0
2018-Jun-19 04:59N 40°39' W 074°04'0 0.0
2018-Jun-19 04:29N 40°39' W 074°04'0 0.0
2018-Jun-19 03:59N 40°39' W 074°04'0 0.0
2018-Jun-19 03:29N 40°39' W 074°04'0 0.0
2018-Jun-19 02:56N 40°39' W 074°04'0 0.0
2018-Jun-19 02:29N 40°39' W 074°04'0 0.0
2018-Jun-19 01:59N 40°39' W 074°04'0 0.0
2018-Jun-19 01:30N 40°39' W 074°04'0 0.0
2018-Jun-19 01:00N 40°39' W 074°04'4 8.6
2018-Jun-19 00:30N 40°42' W 074°01'4 8.6
2018-Jun-19 00:00N 40°39' W 074°04'2 4.9
2018-Jun-18 23:30N 40°41' W 074°02'0 0.4
2018-Jun-18 23:00N 40°41' W 074°02'1 2.4
2018-Jun-18 22:30N 40°40' W 074°03'1 2.1
2018-Jun-18 22:00N 40°41' W 074°02'1 2.1
2018-Jun-18 21:30N 40°40' W 074°03'2 4.0
2018-Jun-18 21:00N 40°42' W 074°02'3 6.9
2018-Jun-18 20:30N 40°39' W 074°04'0 0.0
2018-Jun-18 20:00N 40°39' W 074°04'4 8.7
2018-Jun-18 19:31N 40°42' W 074°01'4 8.6
2018-Jun-18 19:00N 40°39' W 074°04'0 0.1
2018-Jun-18 18:30N 40°39' W 074°04'4 8.5
2018-Jun-18 18:00N 40°42' W 074°01'4 8.6
2018-Jun-18 17:30N 40°39' W 074°04'0 0.0
2018-Jun-18 17:00N 40°39' W 074°04'4 8.7
2018-Jun-18 16:31N 40°42' W 074°01'4 8.6
2018-Jun-18 16:01N 40°39' W 074°04'0 0.1
2018-Jun-18 15:30N 40°39' W 074°04'0 0.0
2018-Jun-18 15:00N 40°39' W 074°04'0 0.0
2018-Jun-18 14:30N 40°39' W 074°04'4 8.7
2018-Jun-18 14:01N 40°42' W 074°01'4 8.6
2018-Jun-18 13:30N 40°39' W 074°04'1 2.6
2018-Jun-18 13:01N 40°40' W 074°03'1 2.7
2018-Jun-18 12:31N 40°41' W 074°02'1 2.8
2018-Jun-18 12:00N 40°40' W 074°03'1 2.8
2018-Jun-18 11:30N 40°41' W 074°02'3 5.4
2018-Jun-18 11:01N 40°39' W 074°04'4 8.6
2018-Jun-18 10:30N 40°42' W 074°01'4 8.6
2018-Jun-18 10:00N 40°39' W 074°04'0 0.0
2018-Jun-18 09:30N 40°39' W 074°04'0 0.0
2018-Jun-18 09:00N 40°39' W 074°04'0 0.1
2018-Jun-18 08:30N 40°39' W 074°04'0 0.1
2018-Jun-18 08:00N 40°39' W 074°04'0 0.0
2018-Jun-18 07:31N 40°39' W 074°04'0 0.1
2018-Jun-18 07:00N 40°39' W 074°04'0 0.0
2018-Jun-18 06:30N 40°39' W 074°04'0 0.0
2018-Jun-18 06:00N 40°39' W 074°04'0 0.0
2018-Jun-18 05:30N 40°39' W 074°04'0 0.0
2018-Jun-18 05:00N 40°39' W 074°04'0 0.0
2018-Jun-18 04:30N 40°39' W 074°04'0 0.0
2018-Jun-18 04:00N 40°39' W 074°04'0 0.0
2018-Jun-18 03:30N 40°39' W 074°04'0 0.0
2018-Jun-18 03:00N 40°39' W 074°04'0 0.0
2018-Jun-18 02:30N 40°39' W 074°04'0 0.0
2018-Jun-18 02:00N 40°39' W 074°04'0 0.0
2018-Jun-18 01:30N 40°39' W 074°04'0 0.0
2018-Jun-18 01:00N 40°39' W 074°04'0 0.1
2018-Jun-18 00:30N 40°39' W 074°04'0 0.0
2018-Jun-18 00:01N 40°39' W 074°04'4 8.6
2018-Jun-17 23:30N 40°42' W 074°01'4 8.6
2018-Jun-17 23:00N 40°39' W 074°04'0 0.0
2018-Jun-17 22:30N 40°39' W 074°04'4 8.6
2018-Jun-17 22:01N 40°42' W 074°01'4 8.6
2018-Jun-17 21:31N 40°39' W 074°04'0 0.0
2018-Jun-17 21:00N 40°39' W 074°04'4 8.7
2018-Jun-17 20:30N 40°42' W 074°01'4 8.6
2018-Jun-17 20:00N 40°39' W 074°04'0 0.1
2018-Jun-17 19:30N 40°39' W 074°04'4 8.6
2018-Jun-17 19:00N 40°42' W 074°01'4 8.3
2018-Jun-17 18:30N 40°39' W 074°04'0 0.0
2018-Jun-17 18:00N 40°39' W 074°04'4 8.6
2018-Jun-17 17:30N 40°42' W 074°01'4 8.6
2018-Jun-17 17:00N 40°39' W 074°04'0 0.0
2018-Jun-17 16:30N 40°39' W 074°04'4 8.6
2018-Jun-17 16:00N 40°42' W 074°01'4 8.6
2018-Jun-17 15:30N 40°39' W 074°04'0 0.0
2018-Jun-17 15:00N 40°39' W 074°04'0 0.0
2018-Jun-17 14:30N 40°39' W 074°04'0 0.0
2018-Jun-17 14:00N 40°39' W 074°04'0 0.0
2018-Jun-17 13:30N 40°39' W 074°04'0 0.0
2018-Jun-17 11:05N 40°39' W 074°04'0 0.0
2018-Jun-17 10:56N 40°39' W 074°04'0 0.0
2018-Jun-17 10:29N 40°39' W 074°04'0 0.0
2018-Jun-17 09:59N 40°39' W 074°04'0 0.0
2018-Jun-17 09:29N 40°39' W 074°04'0 0.0
2018-Jun-17 08:59N 40°39' W 074°04'0 0.0
2018-Jun-17 08:29N 40°39' W 074°04'0 0.0
2018-Jun-17 07:59N 40°39' W 074°04'0 0.0
2018-Jun-17 07:29N 40°39' W 074°04'0 0.0
2018-Jun-17 06:59N 40°39' W 074°04'0 0.0
2018-Jun-17 06:29N 40°39' W 074°04'0 0.0
2018-Jun-17 05:59N 40°39' W 074°04'0 0.0
2018-Jun-17 05:29N 40°39' W 074°04'0 0.0
2018-Jun-17 04:59N 40°39' W 074°04'0 0.0
2018-Jun-17 04:29N 40°39' W 074°04'0 0.0
2018-Jun-17 03:59N 40°39' W 074°04'0 0.0
2018-Jun-17 03:29N 40°39' W 074°04'0 0.0
2018-Jun-17 02:59N 40°39' W 074°04'0 0.0
2018-Jun-17 02:29N 40°39' W 074°04'0 0.0
2018-Jun-17 01:59N 40°39' W 074°04'0 0.0
2018-Jun-17 01:29N 40°39' W 074°04'0 0.0
2018-Jun-17 00:59N 40°39' W 074°04'0 0.1
2018-Jun-17 00:30N 40°39' W 074°04'0 0.2
2018-Jun-17 00:01N 40°39' W 074°04'4 8.5
2018-Jun-16 23:30N 40°42' W 074°01'4 8.6
2018-Jun-16 23:00N 40°39' W 074°04'0 0.0
2018-Jun-16 22:30N 40°39' W 074°04'4 8.5
2018-Jun-16 22:00N 40°42' W 074°01'4 8.7
2018-Jun-16 21:30N 40°39' W 074°04'0 0.0
2018-Jun-16 21:00N 40°39' W 074°04'4 8.6
2018-Jun-16 20:30N 40°42' W 074°01'4 8.6
2018-Jun-16 20:00N 40°39' W 074°04'0 0.0
2018-Jun-16 19:30N 40°39' W 074°04'4 8.5
2018-Jun-16 19:00N 40°42' W 074°01'4 8.6
2018-Jun-16 18:30N 40°39' W 074°04'0 0.0
2018-Jun-16 18:00N 40°39' W 074°04'4 8.6
2018-Jun-16 17:30N 40°42' W 074°01'4 8.6
2018-Jun-16 17:00N 40°39' W 074°04'0 0.0
2018-Jun-16 16:30N 40°39' W 074°04'4 8.6
2018-Jun-16 16:00N 40°42' W 074°01'4 8.7
2018-Jun-16 15:30N 40°39' W 074°04'0 0.6
2018-Jun-16 15:00N 40°38' W 074°04'0 0.7
2018-Jun-16 14:30N 40°39' W 074°04'0 0.0
2018-Jun-16 14:00N 40°39' W 074°04'0 0.0
2018-Jun-16 13:31N 40°39' W 074°04'0 0.0
2018-Jun-16 13:01N 40°39' W 074°04'0 0.0
2018-Jun-16 12:31N 40°39' W 074°04'0 0.0
2018-Jun-16 11:58N 40°39' W 074°04'0 0.0
2018-Jun-16 11:31N 40°39' W 074°04'0 0.0
2018-Jun-16 10:57N 40°39' W 074°04'0 0.0
2018-Jun-16 10:28N 40°39' W 074°04'0 0.0
2018-Jun-16 10:00N 40°39' W 074°04'0 0.0
2018-Jun-16 09:30N 40°39' W 074°04'0 0.0
2018-Jun-16 09:01N 40°39' W 074°04'0 0.0
2018-Jun-16 08:31N 40°39' W 074°04'0 0.0
2018-Jun-16 07:58N 40°39' W 074°04'0 0.0
2018-Jun-16 07:27N 40°39' W 074°04'0 0.0
2018-Jun-16 07:01N 40°39' W 074°04'0 0.0
2018-Jun-16 06:31N 40°39' W 074°04'0 0.0
2018-Jun-16 06:00N 40°39' W 074°04'0 0.0
2018-Jun-16 05:30N 40°39' W 074°04'0 0.0
2018-Jun-16 05:00N 40°39' W 074°04'0 0.0
2018-Jun-16 04:31N 40°39' W 074°04'0 0.0
2018-Jun-16 04:00N 40°39' W 074°04'0 0.0
2018-Jun-16 03:30N 40°39' W 074°04'0 0.0
2018-Jun-16 03:01N 40°39' W 074°04'0 0.0
2018-Jun-16 02:30N 40°39' W 074°04'0 0.0
2018-Jun-16 01:54N 40°39' W 074°04'0 0.0
2018-Jun-16 01:30N 40°39' W 074°04'4 8.5
2018-Jun-16 01:00N 40°42' W 074°01'4 8.6
2018-Jun-16 00:30N 40°39' W 074°04'0 0.6
2018-Jun-16 00:01N 40°39' W 074°04'4 8.0
2018-Jun-15 23:30N 40°42' W 074°01'4 8.6
2018-Jun-15 23:00N 40°39' W 074°04'4 8.6
2018-Jun-15 22:31N 40°42' W 074°01'2 3.4
2018-Jun-15 22:01N 40°41' W 074°02'1 1.7
2018-Jun-15 21:31N 40°40' W 074°03'2 3.2
2018-Jun-15 21:01N 40°41' W 074°02'3 6.8
2018-Jun-15 20:30N 40°39' W 074°04'0 0.0
2018-Jun-15 20:00N 40°39' W 074°04'4 8.6
2018-Jun-15 19:30N 40°42' W 074°01'4 8.7
2018-Jun-15 19:00N 40°39' W 074°04'0 0.0
2018-Jun-15 18:30N 40°39' W 074°04'4 8.6
2018-Jun-15 18:00N 40°42' W 074°01'4 8.7
2018-Jun-15 17:31N 40°39' W 074°04'0 0.0
2018-Jun-15 17:01N 40°39' W 074°04'4 8.6
2018-Jun-15 16:31N 40°42' W 074°01'4 8.6
2018-Jun-15 16:00N 40°39' W 074°04'0 0.0
2018-Jun-15 15:30N 40°39' W 074°04'4 8.6
2018-Jun-15 15:00N 40°42' W 074°01'4 8.6
2018-Jun-15 14:30N 40°39' W 074°04'4 8.6
2018-Jun-15 14:00N 40°42' W 074°01'4 8.6
2018-Jun-15 13:31N 40°39' W 074°04'1 2.6
2018-Jun-15 13:01N 40°40' W 074°03'2 3.7
2018-Jun-15 12:30N 40°41' W 074°02'2 4.0
2018-Jun-15 12:00N 40°39' W 074°03'2 3.4
2018-Jun-15 11:30N 40°41' W 074°02'3 5.6
2018-Jun-15 11:00N 40°39' W 074°04'4 8.6
2018-Jun-15 10:31N 40°42' W 074°01'4 8.7
2018-Jun-15 10:01N 40°39' W 074°04'0 0.2
2018-Jun-15 09:30N 40°39' W 074°04'0 0.0
2018-Jun-15 09:00N 40°39' W 074°04'0 0.0
2018-Jun-15 08:30N 40°39' W 074°04'0 0.0
2018-Jun-15 08:01N 40°39' W 074°04'0 0.0
2018-Jun-15 07:29N 40°39' W 074°04'0 0.0
2018-Jun-15 06:59N 40°39' W 074°04'0 0.0
2018-Jun-15 06:29N 40°39' W 074°04'0 0.0
2018-Jun-15 05:59N 40°39' W 074°04'0 0.0
2018-Jun-15 05:29N 40°39' W 074°04'0 0.0
2018-Jun-15 04:59N 40°39' W 074°04'0 0.0
2018-Jun-15 04:29N 40°39' W 074°04'0 0.0
2018-Jun-15 03:59N 40°39' W 074°04'0 0.0
2018-Jun-15 03:29N 40°39' W 074°04'0 0.0
2018-Jun-15 02:59N 40°39' W 074°04'0 0.0
2018-Jun-15 02:29N 40°39' W 074°04'0 0.0
2018-Jun-15 02:00N 40°39' W 074°04'0 0.0
2018-Jun-15 01:30N 40°39' W 074°04'4 8.6
2018-Jun-15 01:01N 40°42' W 074°01'4 8.5
2018-Jun-15 00:31N 40°39' W 074°04'0 0.8
2018-Jun-15 00:01N 40°39' W 074°04'4 7.5
2018-Jun-14 23:30N 40°42' W 074°01'4 8.7
2018-Jun-14 23:00N 40°39' W 074°04'4 7.2
2018-Jun-14 22:31N 40°42' W 074°02'1 2.7
2018-Jun-14 22:00N 40°40' W 074°02'0 0.6
2018-Jun-14 21:31N 40°40' W 074°03'1 2.6
2018-Jun-14 21:00N 40°41' W 074°02'3 6.4
2018-Jun-14 20:30N 40°39' W 074°04'0 0.0
2018-Jun-14 20:00N 40°39' W 074°04'4 8.6
2018-Jun-14 19:30N 40°42' W 074°01'4 8.6
2018-Jun-14 19:01N 40°39' W 074°04'0 0.1
2018-Jun-14 18:30N 40°39' W 074°04'4 8.7
2018-Jun-14 18:00N 40°42' W 074°01'4 8.5
2018-Jun-14 17:30N 40°39' W 074°04'0 0.0
2018-Jun-14 17:00N 40°39' W 074°04'4 8.7
2018-Jun-14 16:30N 40°42' W 074°01'4 8.6
2018-Jun-14 16:01N 40°39' W 074°04'1 1.1
2018-Jun-14 15:30N 40°39' W 074°04'4 7.4
2018-Jun-14 15:00N 40°42' W 074°01'4 9.0
2018-Jun-14 14:30N 40°39' W 074°04'4 8.6
2018-Jun-14 14:00N 40°42' W 074°01'4 8.6
2018-Jun-14 13:30N 40°39' W 074°04'2 4.2
2018-Jun-14 13:01N 40°40' W 074°03'0 0.7
2018-Jun-14 12:30N 40°41' W 074°02'1 1.6
2018-Jun-14 12:00N 40°40' W 074°03'1 2.6
2018-Jun-14 11:31N 40°41' W 074°02'3 5.4
2018-Jun-14 10:58N 40°39' W 074°04'4 9.4
2018-Jun-14 10:30N 40°42' W 074°01'4 8.6
2018-Jun-14 10:00N 40°39' W 074°04'0 0.0
2018-Jun-14 09:30N 40°39' W 074°04'0 0.0
2018-Jun-14 09:00N 40°39' W 074°04'0 0.1
2018-Jun-14 08:30N 40°39' W 074°04'0 0.1
2018-Jun-14 08:00N 40°39' W 074°04'0 0.0
2018-Jun-14 07:29N 40°39' W 074°04'0 0.0
2018-Jun-14 06:59N 40°39' W 074°04'0 0.0
2018-Jun-14 06:29N 40°39' W 074°04'0 0.0
2018-Jun-14 05:59N 40°39' W 074°04'0 0.0
2018-Jun-14 05:29N 40°39' W 074°04'0 0.0
2018-Jun-14 04:59N 40°39' W 074°04'0 0.0
2018-Jun-14 04:29N 40°39' W 074°04'0 0.0
2018-Jun-14 03:59N 40°39' W 074°04'0 0.0
2018-Jun-14 03:29N 40°39' W 074°04'0 0.0
2018-Jun-14 02:59N 40°39' W 074°04'0 0.0
2018-Jun-14 02:29N 40°39' W 074°04'0 0.0
2018-Jun-14 01:59N 40°39' W 074°04'0 0.0
2018-Jun-14 01:29N 40°39' W 074°04'0 0.0
2018-Jun-14 01:00N 40°39' W 074°04'4 8.6
2018-Jun-14 00:30N 40°42' W 074°01'4 8.6
2018-Jun-14 00:00N 40°39' W 074°04'3 5.6
2018-Jun-13 23:30N 40°41' W 074°02'0 0.5
2018-Jun-13 23:00N 40°41' W 074°02'1 2.3
2018-Jun-13 22:31N 40°40' W 074°03'2 2.6
2018-Jun-13 21:47N 40°39' W 074°04'2 5.7
2018-Jun-13 21:30N 40°40' W 074°03'2 4.1
2018-Jun-13 21:00N 40°41' W 074°02'4 7.1
2018-Jun-13 20:30N 40°39' W 074°04'0 0.0
2018-Jun-13 20:00N 40°39' W 074°04'4 8.4
2018-Jun-13 19:29N 40°42' W 074°01'4 9.0
2018-Jun-13 19:01N 40°39' W 074°04'0 0.0
2018-Jun-13 18:31N 40°39' W 074°04'4 8.6
2018-Jun-13 18:00N 40°42' W 074°01'4 8.7
2018-Jun-13 17:30N 40°39' W 074°04'0 0.0
2018-Jun-13 17:00N 40°39' W 074°04'4 8.6
2018-Jun-13 16:30N 40°42' W 074°01'4 8.6
2018-Jun-13 16:01N 40°39' W 074°04'0 0.1
2018-Jun-13 15:30N 40°39' W 074°04'4 8.6
2018-Jun-13 15:00N 40°42' W 074°01'4 8.7
2018-Jun-13 14:31N 40°39' W 074°04'4 8.6
2018-Jun-13 14:00N 40°42' W 074°01'4 8.6
2018-Jun-13 13:31N 40°39' W 074°04'2 3.3
2018-Jun-13 13:01N 40°40' W 074°03'1 2.9
2018-Jun-13 12:30N 40°41' W 074°02'2 3.3
2018-Jun-13 12:00N 40°40' W 074°03'2 3.4
2018-Jun-13 11:30N 40°41' W 074°02'3 6.3
2018-Jun-13 11:00N 40°39' W 074°04'4 8.6
2018-Jun-13 10:31N 40°42' W 074°01'4 8.6
2018-Jun-13 10:00N 40°39' W 074°04'0 0.0
2018-Jun-13 09:30N 40°39' W 074°04'  

Dump ship's entire track history